createdAt,value
2022-08-05T00:00:21.564Z,11.00
2022-08-05T00:02:51.050Z,10.90
2022-08-05T00:06:02.888Z,10.80
2022-08-05T00:08:19.823Z,10.80
2022-08-05T00:11:00.395Z,10.80
2022-08-05T00:13:38.476Z,10.70
2022-08-05T00:16:09.629Z,10.70
2022-08-05T00:18:40.877Z,10.60
2022-08-05T00:21:09.271Z,10.60
2022-08-05T00:23:46.345Z,10.50
2022-08-05T00:26:20.583Z,10.60
2022-08-05T00:28:47.548Z,10.60
2022-08-05T00:31:16.546Z,10.60
2022-08-05T00:34:54.968Z,10.60
2022-08-05T00:37:11.981Z,10.60
2022-08-05T00:39:43.955Z,10.50
2022-08-05T00:42:36.632Z,10.50
2022-08-05T00:45:06.645Z,10.50
2022-08-05T00:47:57.150Z,10.50
2022-08-05T00:50:25.416Z,10.40
2022-08-05T00:52:53.568Z,10.40
2022-08-05T00:55:23.476Z,10.30
2022-08-05T00:58:13.324Z,10.20
2022-08-05T01:00:41.157Z,10.20
2022-08-05T01:03:22.395Z,10.20
2022-08-05T01:05:54.843Z,10.20
2022-08-05T01:08:40.111Z,10.20
2022-08-05T01:11:13.908Z,10.20
2022-08-05T01:14:03.395Z,10.10
2022-08-05T01:16:59.511Z,10.20
2022-08-05T01:20:02.240Z,10.20
2022-08-05T01:22:51.266Z,10.20
2022-08-05T01:25:18.253Z,10.30
2022-08-05T01:28:17.194Z,10.30
2022-08-05T01:30:55.095Z,10.20
2022-08-05T01:33:26.332Z,10.20
2022-08-05T01:35:57.613Z,10.20
2022-08-05T01:38:29.198Z,10.20
2022-08-05T01:41:01.522Z,10.20
2022-08-05T01:43:30.417Z,10.30
2022-08-05T01:46:06.980Z,10.30
2022-08-05T01:48:49.707Z,10.30
2022-08-05T01:51:19.012Z,10.30
2022-08-05T01:53:57.449Z,10.30
2022-08-05T01:58:10.637Z,10.30
2022-08-05T01:59:23.311Z,10.40
2022-08-05T02:01:54.810Z,10.40
2022-08-05T02:04:24.192Z,10.40
2022-08-05T02:06:53.065Z,10.40
2022-08-05T02:09:20.656Z,10.40
2022-08-05T02:11:53.251Z,10.40
2022-08-05T02:14:51.425Z,10.40
2022-08-05T02:18:28.562Z,10.50
2022-08-05T02:20:30.608Z,10.50
2022-08-05T02:23:10.378Z,10.50
2022-08-05T02:25:49.856Z,10.60
2022-08-05T02:28:29.188Z,10.60
2022-08-05T02:31:07.663Z,10.60
2022-08-05T02:33:48.402Z,10.70
2022-08-05T02:36:20.601Z,10.70
2022-08-05T02:38:56.305Z,10.70
2022-08-05T02:41:28.855Z,10.70
2022-08-05T02:44:13.018Z,10.70
2022-08-05T02:46:44.003Z,10.70
2022-08-05T02:49:36.424Z,10.70
2022-08-05T02:52:29.678Z,10.70
2022-08-05T02:55:01.974Z,10.70
2022-08-05T02:58:11.320Z,10.70
2022-08-05T03:00:21.985Z,10.80
2022-08-05T03:02:49.735Z,10.80
2022-08-05T03:05:17.744Z,10.80
2022-08-05T03:08:04.510Z,10.80
2022-08-05T03:10:35.039Z,10.80
2022-08-05T03:15:27.652Z,10.80
2022-08-05T03:17:57.866Z,10.80
2022-08-05T03:20:26.485Z,10.80
2022-08-05T03:22:57.527Z,10.80
2022-08-05T03:25:33.668Z,10.80
2022-08-05T03:28:14.448Z,10.80
2022-08-05T03:30:47.449Z,10.80
2022-08-05T03:33:14.437Z,10.80
2022-08-05T03:35:42.015Z,10.80
2022-08-05T03:38:14.363Z,10.80
2022-08-05T03:40:45.419Z,10.80
2022-08-05T03:44:08.930Z,10.80
2022-08-05T03:46:03.456Z,10.80
2022-08-05T03:48:30.830Z,10.70
2022-08-05T03:52:48.657Z,10.70
2022-08-05T03:55:53.008Z,10.70
2022-08-05T03:57:16.137Z,10.70
2022-08-05T04:00:16.650Z,10.70
2022-08-05T04:02:58.188Z,10.60
2022-08-05T04:05:33.920Z,10.60
2022-08-05T04:08:14.621Z,10.60
2022-08-05T04:10:55.201Z,10.60
2022-08-05T04:13:22.869Z,10.60
2022-08-05T04:15:52.664Z,10.50
2022-08-05T04:18:30.654Z,10.60
2022-08-05T04:20:58.347Z,10.60
2022-08-05T04:24:05.977Z,10.60
2022-08-05T04:26:15.501Z,10.60
2022-08-05T04:28:51.726Z,10.60
2022-08-05T04:31:19.685Z,10.60
2022-08-05T04:34:18.258Z,10.60
2022-08-05T04:36:44.960Z,10.60
2022-08-05T04:39:17.788Z,10.60
2022-08-05T04:41:45.821Z,10.60
2022-08-05T04:44:21.479Z,10.60
2022-08-05T04:46:57.679Z,10.60
2022-08-05T04:50:01.633Z,10.60
2022-08-05T04:52:12.913Z,10.60
2022-08-05T04:54:39.834Z,10.60
2022-08-05T04:57:06.724Z,10.60
2022-08-05T04:59:39.085Z,10.60
2022-08-05T05:02:36.541Z,10.70
2022-08-05T05:05:02.182Z,10.70
2022-08-05T05:07:32.239Z,10.70
2022-08-05T05:10:04.366Z,10.80
2022-08-05T05:12:31.589Z,10.80
2022-08-05T05:14:58.565Z,10.80
2022-08-05T05:17:56.230Z,10.90
2022-08-05T05:20:13.620Z,10.90
2022-08-05T05:22:43.947Z,10.90
2022-08-05T05:25:16.887Z,11.00
2022-08-05T05:27:53.659Z,11.00
2022-08-05T05:30:31.008Z,11.00
2022-08-05T05:33:09.331Z,11.00
2022-08-05T05:35:47.468Z,11.10
2022-08-05T05:38:27.185Z,11.10
2022-08-05T05:40:55.906Z,11.10
2022-08-05T05:43:56.500Z,11.20
2022-08-05T05:46:17.194Z,11.20
2022-08-05T05:48:48.382Z,11.30
2022-08-05T05:51:27.857Z,11.40
2022-08-05T05:53:58.975Z,11.50
2022-08-05T05:56:33.065Z,11.40
2022-08-05T05:59:06.634Z,11.40
2022-08-05T06:01:41.598Z,11.40
2022-08-05T06:04:25.134Z,11.30
2022-08-05T06:06:52.249Z,11.30
2022-08-05T06:09:35.394Z,11.30
2022-08-05T06:12:06.844Z,11.30
2022-08-05T06:14:36.690Z,11.30
2022-08-05T06:17:22.237Z,11.30
2022-08-05T06:19:56.533Z,11.20
2022-08-05T06:22:33.718Z,11.20
2022-08-05T06:25:01.681Z,11.20
2022-08-05T06:28:11.173Z,11.10
2022-08-05T06:30:35.528Z,11.20
2022-08-05T06:33:02.510Z,11.20
2022-08-05T06:36:04.175Z,11.20
2022-08-05T06:38:16.613Z,11.20
2022-08-05T06:40:44.723Z,11.20
2022-08-05T06:43:57.412Z,11.20
2022-08-05T06:46:07.036Z,11.20
2022-08-05T06:48:53.142Z,11.30
2022-08-05T06:51:29.127Z,11.40
2022-08-05T06:54:02.255Z,11.60
2022-08-05T06:56:30.338Z,11.80
2022-08-05T06:59:02.239Z,12.00
2022-08-05T07:01:32.242Z,12.20
2022-08-05T07:04:01.475Z,12.40
2022-08-05T07:06:29.574Z,12.50
2022-08-05T07:08:56.501Z,12.70
2022-08-05T07:11:28.716Z,12.80
2022-08-05T07:14:20.749Z,12.90
2022-08-05T07:17:58.332Z,13.00
2022-08-05T07:22:36.168Z,13.30
2022-08-05T07:25:23.776Z,13.40
2022-08-05T07:27:58.318Z,13.50
2022-08-05T07:30:32.873Z,13.60
2022-08-05T07:33:08.979Z,13.60
2022-08-05T07:36:05.158Z,13.70
2022-08-05T07:38:34.054Z,13.60
2022-08-05T07:42:07.480Z,13.50
2022-08-05T07:43:58.367Z,13.40
2022-08-05T07:46:30.773Z,13.40
2022-08-05T07:49:01.750Z,13.30
2022-08-05T07:51:37.044Z,13.30
2022-08-05T07:54:09.478Z,13.30
2022-08-05T07:56:49.018Z,13.40
2022-08-05T07:59:31.165Z,13.50
2022-08-05T08:02:15.349Z,13.60
2022-08-05T08:04:45.892Z,13.70
2022-08-05T08:07:13.607Z,13.70
2022-08-05T08:09:40.573Z,13.70
2022-08-05T08:12:33.541Z,13.70
2022-08-05T08:14:55.017Z,13.70
2022-08-05T08:17:22.788Z,13.80
2022-08-05T08:20:22.333Z,14.00
2022-08-05T08:22:37.941Z,14.20
2022-08-05T08:25:16.436Z,14.40
2022-08-05T08:27:47.859Z,14.60
2022-08-05T08:30:32.425Z,14.90
2022-08-05T08:33:08.677Z,15.10
2022-08-05T08:35:53.103Z,15.00
2022-08-05T08:38:32.182Z,15.10
2022-08-05T08:41:08.592Z,15.30
2022-08-05T08:45:17.713Z,15.50
2022-08-05T08:46:28.042Z,15.70
2022-08-05T08:49:07.703Z,15.80
2022-08-05T08:52:05.999Z,15.90
2022-08-05T08:54:36.576Z,16.00
2022-08-05T08:57:11.302Z,15.90
2022-08-05T08:59:39.214Z,15.80
2022-08-05T09:02:09.374Z,15.70
2022-08-05T09:04:58.558Z,15.70
2022-08-05T09:07:28.826Z,15.70
2022-08-05T09:09:56.689Z,16.00
2022-08-05T09:12:27.401Z,16.20
2022-08-05T09:15:03.991Z,16.20
2022-08-05T09:17:42.673Z,16.30
2022-08-05T09:20:13.093Z,16.50
2022-08-05T09:23:05.141Z,16.90
2022-08-05T09:26:03.413Z,17.50
2022-08-05T09:28:31.498Z,17.80
2022-08-05T09:31:43.687Z,18.00
2022-08-05T09:34:01.364Z,17.60
2022-08-05T09:36:55.228Z,17.40
2022-08-05T09:39:41.503Z,17.30
2022-08-05T09:42:24.376Z,17.40
2022-08-05T09:44:57.407Z,17.70
2022-08-05T09:47:48.419Z,17.50
2022-08-05T09:50:38.914Z,17.30
2022-08-05T09:53:09.120Z,17.20
2022-08-05T09:55:58.526Z,17.30
2022-08-05T09:58:27.053Z,17.40
2022-08-05T10:01:22.552Z,17.60
2022-08-05T10:04:10.049Z,17.40
2022-08-05T10:06:40.630Z,17.20
2022-08-05T10:09:27.428Z,16.90
2022-08-05T10:11:54.902Z,17.30
2022-08-05T10:14:28.547Z,17.90
2022-08-05T10:17:37.994Z,18.70
2022-08-05T10:20:03.933Z,19.40
2022-08-05T10:22:39.139Z,19.40
2022-08-05T10:25:10.484Z,19.10
2022-08-05T10:28:16.772Z,18.90
2022-08-05T10:31:19.837Z,18.90
2022-08-05T10:33:17.299Z,18.60
2022-08-05T10:35:48.604Z,18.20
2022-08-05T10:38:28.586Z,18.00
2022-08-05T10:41:23.714Z,17.70
2022-08-05T10:43:57.876Z,17.40
2022-08-05T10:46:45.742Z,17.40
2022-08-05T10:49:16.580Z,18.50
2022-08-05T10:51:57.543Z,19.00
2022-08-05T10:55:03.088Z,19.50
2022-08-05T10:57:33.975Z,19.50
2022-08-05T11:00:20.239Z,19.10
2022-08-05T11:03:24.720Z,19.10
2022-08-05T11:06:15.049Z,18.70
2022-08-05T11:09:13.169Z,18.50
2022-08-05T11:11:53.033Z,18.70
2022-08-05T11:17:57.163Z,17.80
2022-08-05T11:20:45.261Z,16.90
2022-08-05T11:24:05.019Z,16.30
2022-08-05T11:26:32.645Z,16.00
2022-08-05T11:29:11.761Z,15.80
2022-08-05T11:31:58.907Z,15.70
2022-08-05T11:34:39.190Z,15.80
2022-08-05T11:38:26.315Z,15.90
2022-08-05T11:39:55.512Z,16.00
2022-08-05T11:42:37.818Z,16.10
2022-08-05T11:45:14.220Z,16.40
2022-08-05T11:47:54.723Z,17.20
2022-08-05T11:50:22.624Z,17.90
2022-08-05T11:52:53.132Z,17.90
2022-08-05T11:55:24.340Z,18.50
2022-08-05T11:58:10.146Z,18.50
2022-08-05T12:00:41.165Z,18.50
2022-08-05T12:03:23.784Z,18.40
2022-08-05T12:06:05.817Z,18.30
2022-08-05T12:08:33.859Z,18.40
2022-08-05T12:11:05.934Z,18.40
2022-08-05T12:13:47.579Z,18.30
2022-08-05T12:16:19.571Z,18.20
2022-08-05T12:18:49.449Z,18.10
2022-08-05T12:21:20.104Z,18.00
2022-08-05T12:23:59.965Z,17.80
2022-08-05T12:26:32.940Z,17.60
2022-08-05T12:29:00.075Z,17.50
2022-08-05T12:31:33.051Z,17.30
2022-08-05T12:34:14.716Z,17.10
2022-08-05T12:36:49.984Z,16.90
2022-08-05T12:39:17.862Z,17.00
2022-08-05T12:41:45.822Z,17.50
2022-08-05T12:44:28.482Z,18.20
2022-08-05T12:47:02.244Z,18.60
2022-08-05T12:50:03.141Z,19.20
2022-08-05T12:52:42.646Z,19.10
2022-08-05T12:55:25.689Z,19.10
2022-08-05T12:58:48.202Z,18.90
2022-08-05T13:02:00.180Z,18.50
2022-08-05T13:03:32.386Z,18.40
2022-08-05T13:06:01.167Z,18.00
2022-08-05T13:08:32.379Z,17.90
2022-08-05T13:11:02.629Z,17.90
2022-08-05T13:14:05.714Z,17.70
2022-08-05T13:16:20.332Z,18.10
2022-08-05T13:21:18.886Z,19.80
2022-08-05T13:23:50.562Z,20.50
2022-08-05T13:26:18.130Z,21.00
2022-08-05T13:28:45.096Z,20.70
2022-08-05T13:31:14.368Z,20.80
2022-08-05T13:34:24.471Z,20.50
2022-08-05T13:36:29.616Z,20.40
2022-08-05T13:38:56.676Z,20.10
2022-08-05T13:41:35.742Z,19.70
2022-08-05T13:44:04.936Z,19.10
2022-08-05T13:46:44.014Z,18.90
2022-08-05T13:49:20.078Z,18.60
2022-08-05T13:51:48.374Z,18.40
2022-08-05T13:54:17.229Z,18.40
2022-08-05T13:56:52.093Z,18.10
2022-08-05T13:59:24.177Z,18.40
2022-08-05T14:01:58.262Z,18.20
2022-08-05T14:04:51.082Z,18.10
2022-08-05T14:07:56.442Z,18.00
2022-08-05T14:10:13.720Z,18.00
2022-08-05T14:12:48.809Z,17.90
2022-08-05T14:16:04.768Z,17.90
2022-08-05T14:18:04.106Z,17.90
2022-08-05T14:20:31.783Z,17.90
2022-08-05T14:23:00.336Z,17.90
2022-08-05T14:25:30.155Z,17.90
2022-08-05T14:27:58.353Z,17.90
2022-08-05T14:30:26.665Z,17.90
2022-08-05T14:32:55.060Z,18.00
2022-08-05T14:35:23.961Z,18.00
2022-08-05T14:38:32.738Z,17.90
2022-08-05T14:40:58.111Z,17.90
2022-08-05T14:44:02.597Z,18.00
2022-08-05T14:46:12.256Z,18.10
2022-08-05T14:48:39.216Z,18.10
2022-08-05T14:51:06.225Z,18.30
2022-08-05T14:53:44.508Z,18.30
2022-08-05T14:56:13.419Z,18.50
2022-08-05T14:58:47.835Z,18.40
2022-08-05T15:01:47.145Z,18.50
2022-08-05T15:04:11.452Z,18.60
2022-08-05T15:06:40.405Z,18.60
2022-08-05T15:09:07.521Z,18.60
2022-08-05T15:11:50.894Z,18.50
2022-08-05T15:14:34.511Z,18.50
2022-08-05T15:17:05.186Z,18.40
2022-08-05T15:19:36.970Z,18.30
2022-08-05T15:22:06.053Z,18.30
2022-08-05T15:24:33.010Z,18.30
2022-08-05T15:26:59.891Z,18.30
2022-08-05T15:29:30.188Z,18.20
2022-08-05T15:32:03.135Z,18.10
2022-08-05T15:34:33.177Z,18.10
2022-08-05T15:37:06.323Z,18.00
2022-08-05T15:41:02.822Z,17.90
2022-08-05T15:45:17.148Z,17.20
2022-08-05T15:47:46.009Z,16.80
2022-08-05T15:50:15.835Z,16.50
2022-08-05T15:52:53.182Z,16.10
2022-08-05T15:55:24.527Z,15.80
2022-08-05T15:57:51.939Z,15.70
2022-08-05T16:00:32.659Z,15.70
2022-08-05T16:03:06.510Z,15.70
2022-08-05T16:05:34.319Z,15.70
2022-08-05T16:08:06.345Z,15.80
2022-08-05T16:10:33.341Z,15.80
2022-08-05T16:13:00.285Z,15.80
2022-08-05T16:15:32.317Z,15.80
2022-08-05T16:18:00.746Z,16.00
2022-08-05T16:20:31.401Z,16.20
2022-08-05T16:22:59.397Z,16.10
2022-08-05T16:25:34.123Z,16.20
2022-08-05T16:28:06.052Z,16.30
2022-08-05T16:30:34.231Z,16.30
2022-08-05T16:33:03.355Z,16.30
2022-08-05T16:35:32.375Z,16.30
2022-08-05T16:38:15.436Z,16.50
2022-08-05T16:40:55.730Z,16.60
2022-08-05T16:43:35.089Z,16.90
2022-08-05T16:46:12.803Z,17.20
2022-08-05T16:48:51.030Z,17.50
2022-08-05T16:51:17.997Z,17.90
2022-08-05T16:54:02.488Z,18.00
2022-08-05T16:56:34.004Z,18.20
2022-08-05T16:59:08.093Z,18.20
2022-08-05T17:01:54.391Z,18.30
2022-08-05T17:04:26.390Z,18.40
2022-08-05T17:07:01.397Z,18.60
2022-08-05T17:09:29.927Z,18.50
2022-08-05T17:11:59.758Z,18.40
2022-08-05T17:14:36.661Z,18.00
2022-08-05T17:17:06.802Z,17.80
2022-08-05T17:19:43.890Z,17.70
2022-08-05T17:22:25.153Z,17.60
2022-08-05T17:24:58.207Z,17.50
2022-08-05T17:27:27.580Z,17.30
2022-08-05T17:30:03.014Z,17.30
2022-08-05T17:32:32.142Z,17.20
2022-08-05T17:35:00.757Z,17.10
2022-08-05T17:37:41.931Z,17.00
2022-08-05T17:40:17.469Z,17.00
2022-08-05T17:42:50.469Z,17.00
2022-08-05T17:45:21.552Z,17.00
2022-08-05T17:47:54.445Z,17.00
2022-08-05T17:50:28.733Z,17.00
2022-08-05T17:53:01.824Z,16.90
2022-08-05T17:55:37.931Z,16.80
2022-08-05T17:58:13.181Z,16.70
2022-08-05T18:00:45.464Z,16.70
2022-08-05T18:06:11.232Z,16.80
2022-08-05T18:08:40.617Z,16.80
2022-08-05T18:11:24.817Z,16.80
2022-08-05T18:14:00.765Z,16.80
2022-08-05T18:16:30.837Z,16.70
2022-08-05T18:18:57.762Z,16.70
2022-08-05T18:21:26.524Z,16.70
2022-08-05T18:23:55.845Z,16.70
2022-08-05T18:26:27.759Z,16.70
2022-08-05T18:28:57.151Z,16.70
2022-08-05T18:31:24.252Z,16.60
2022-08-05T18:33:51.690Z,16.60
2022-08-05T18:36:19.358Z,16.60
2022-08-05T18:38:46.794Z,16.50
2022-08-05T18:41:53.514Z,16.50
2022-08-05T18:44:06.370Z,16.50
2022-08-05T18:46:34.830Z,16.50
2022-08-05T18:49:21.418Z,16.50
2022-08-05T18:52:08.929Z,16.40
2022-08-05T18:54:41.321Z,16.40
2022-08-05T18:57:15.154Z,16.40
2022-08-05T19:00:02.329Z,16.30
2022-08-05T19:02:29.864Z,16.30
2022-08-05T19:05:02.247Z,16.40
2022-08-05T19:07:48.147Z,16.30
2022-08-05T19:10:28.011Z,16.20
2022-08-05T19:12:57.151Z,16.20
2022-08-05T19:18:22.221Z,16.20
2022-08-05T19:20:53.667Z,16.10
2022-08-05T19:24:04.480Z,16.00
2022-08-05T19:26:09.246Z,15.90
2022-08-05T19:28:44.603Z,15.80
2022-08-05T19:31:19.389Z,15.80
2022-08-05T19:33:56.023Z,15.70
2022-08-05T19:36:25.835Z,15.50
2022-08-05T19:39:00.661Z,15.40
2022-08-05T19:41:34.794Z,15.40
2022-08-05T19:44:19.588Z,15.40
2022-08-05T19:46:47.301Z,15.30
2022-08-05T19:49:17.935Z,15.30
2022-08-05T19:52:08.682Z,15.30
2022-08-05T19:54:36.992Z,15.20
2022-08-05T19:57:08.593Z,15.20
2022-08-05T19:59:55.552Z,15.10
2022-08-05T20:02:26.981Z,15.00
2022-08-05T20:04:59.035Z,14.90
2022-08-05T20:07:47.503Z,14.80
2022-08-05T20:10:16.502Z,14.70
2022-08-05T20:12:48.443Z,14.70
2022-08-05T20:15:22.950Z,14.60
2022-08-05T20:18:10.252Z,14.60
2022-08-05T20:20:57.050Z,14.50
2022-08-05T20:23:38.834Z,14.50
2022-08-05T20:26:16.213Z,14.40
2022-08-05T20:28:50.492Z,14.40
2022-08-05T20:31:21.362Z,14.40
2022-08-05T20:33:50.378Z,14.40
2022-08-05T20:36:18.201Z,14.40
2022-08-05T20:38:53.534Z,14.50
2022-08-05T20:41:27.040Z,14.50
2022-08-05T20:43:59.683Z,14.40
2022-08-05T20:46:30.158Z,14.40
2022-08-05T20:48:57.313Z,14.30
2022-08-05T20:51:25.173Z,14.40
2022-08-05T20:53:56.199Z,14.40
2022-08-05T20:56:31.828Z,14.40
2022-08-05T20:59:11.196Z,14.50
2022-08-05T21:01:41.734Z,14.40
2022-08-05T21:04:10.718Z,14.40
2022-08-05T21:06:45.781Z,14.40
2022-08-05T21:09:14.604Z,14.40
2022-08-05T21:12:08.866Z,14.30
2022-08-05T21:14:34.746Z,14.30
2022-08-05T21:17:05.435Z,14.30
2022-08-05T21:19:46.955Z,14.30
2022-08-05T21:22:21.829Z,14.30
2022-08-05T21:24:52.149Z,14.30
2022-08-05T21:27:24.962Z,14.40
2022-08-05T21:29:56.054Z,14.40
2022-08-05T21:32:27.940Z,14.50
2022-08-05T21:35:17.648Z,14.50
2022-08-05T21:37:47.307Z,14.40
2022-08-05T21:40:21.941Z,14.40
2022-08-05T21:42:51.880Z,14.40
2022-08-05T21:45:24.749Z,14.30
2022-08-05T21:47:57.025Z,14.30
2022-08-05T21:50:26.317Z,14.30
2022-08-05T21:52:53.634Z,14.30
2022-08-05T21:56:01.577Z,14.30
2022-08-05T21:58:13.259Z,14.30
2022-08-05T22:00:40.432Z,14.30
2022-08-05T22:03:09.754Z,14.30
2022-08-05T22:05:49.124Z,14.30
2022-08-05T22:08:22.348Z,14.30
2022-08-05T22:10:51.664Z,14.30
2022-08-05T22:14:19.953Z,14.20
2022-08-05T22:16:32.228Z,14.20
2022-08-05T22:18:55.517Z,14.10
2022-08-05T22:21:25.816Z,14.10
2022-08-05T22:24:12.911Z,14.10
2022-08-05T22:26:58.825Z,14.10
2022-08-05T22:29:30.709Z,14.00
2022-08-05T22:32:03.283Z,14.10
2022-08-05T22:34:31.391Z,14.10
2022-08-05T22:36:58.856Z,14.20
2022-08-05T22:39:32.993Z,14.20
2022-08-05T22:42:11.043Z,14.30
2022-08-05T22:44:40.574Z,14.30
2022-08-05T22:47:09.607Z,14.30
2022-08-05T22:50:18.391Z,14.30
2022-08-05T22:52:32.484Z,14.30
2022-08-05T22:55:01.930Z,14.20
2022-08-05T22:57:34.035Z,14.10
2022-08-05T23:00:07.878Z,14.00
2022-08-05T23:02:39.991Z,13.90
2022-08-05T23:05:14.074Z,13.90
2022-08-05T23:07:48.468Z,13.80
2022-08-05T23:10:20.022Z,13.80
2022-08-05T23:12:51.709Z,13.70
2022-08-05T23:15:22.882Z,13.60
2022-08-05T23:18:01.233Z,13.50
2022-08-05T23:20:33.708Z,13.40
2022-08-05T23:23:08.250Z,13.40
2022-08-05T23:25:53.524Z,13.40
2022-08-05T23:28:29.255Z,13.30
2022-08-05T23:31:15.729Z,13.30
2022-08-05T23:34:04.477Z,13.10
2022-08-05T23:36:39.744Z,12.90
2022-08-05T23:39:31.785Z,12.60
2022-08-05T23:41:59.870Z,12.60
2022-08-05T23:44:31.114Z,12.60
2022-08-05T23:46:59.855Z,12.60
2022-08-05T23:49:33.958Z,12.60
2022-08-05T23:52:22.114Z,12.60
2022-08-05T23:54:53.498Z,12.60
2022-08-05T23:57:20.480Z,12.50
